createdAt,value
2018-07-30T00:00:43.365Z,27.28
2018-07-30T00:03:14.374Z,27.35
2018-07-30T00:05:44.994Z,27.29
2018-07-30T00:08:15.981Z,27.57
2018-07-30T00:10:46.601Z,27.55
2018-07-30T00:13:17.340Z,27.63
2018-07-30T00:15:47.918Z,27.77
2018-07-30T00:18:18.736Z,27.62
2018-07-30T00:20:49.437Z,27.59
2018-07-30T00:23:20.055Z,27.66
2018-07-30T00:25:50.653Z,27.80
2018-07-30T00:28:21.550Z,27.13
2018-07-30T00:30:52.277Z,27.15
2018-07-30T00:33:23.153Z,27.05
2018-07-30T00:35:53.842Z,26.85
2018-07-30T00:38:24.505Z,27.03
2018-07-30T00:40:55.212Z,26.98
2018-07-30T00:43:26.786Z,26.83
2018-07-30T00:45:57.672Z,26.82
2018-07-30T00:48:28.553Z,27.19
2018-07-30T00:50:59.048Z,27.33
2018-07-30T00:53:29.660Z,27.29
2018-07-30T00:56:00.181Z,27.11
2018-07-30T00:58:30.993Z,26.93
2018-07-30T01:01:01.564Z,26.77
2018-07-30T01:03:32.290Z,26.93
2018-07-30T01:06:02.838Z,27.13
2018-07-30T01:08:33.474Z,27.20
2018-07-30T01:11:04.156Z,27.32
2018-07-30T01:13:34.987Z,27.40
2018-07-30T01:16:05.620Z,27.36
2018-07-30T01:18:36.467Z,27.48
2018-07-30T01:21:06.860Z,27.72
2018-07-30T01:23:37.756Z,27.42
2018-07-30T01:26:13.253Z,27.37
2018-07-30T01:28:43.960Z,27.57
2018-07-30T01:31:14.528Z,27.80
2018-07-30T01:33:45.686Z,27.55
2018-07-30T01:36:16.414Z,27.53
2018-07-30T01:38:47.197Z,27.28
2018-07-30T01:41:18.013Z,27.54
2018-07-30T01:43:48.721Z,27.53
2018-07-30T01:46:19.370Z,27.74
2018-07-30T01:48:50.052Z,27.62
2018-07-30T01:51:20.735Z,27.73
2018-07-30T01:53:51.354Z,27.72
2018-07-30T01:56:21.937Z,27.32
2018-07-30T01:58:52.461Z,27.35
2018-07-30T02:01:23.316Z,27.51
2018-07-30T02:03:54.457Z,27.56
2018-07-30T02:06:25.193Z,27.73
2018-07-30T02:08:55.825Z,27.57
2018-07-30T02:11:26.445Z,27.44
2018-07-30T02:13:57.232Z,27.31
2018-07-30T02:16:27.820Z,27.10
2018-07-30T02:18:58.580Z,27.37
2018-07-30T02:21:29.349Z,27.07
2018-07-30T02:23:59.615Z,27.27
2018-07-30T02:26:30.214Z,27.07
2018-07-30T02:29:01.338Z,27.11
2018-07-30T02:31:31.872Z,27.20
2018-07-30T02:34:02.440Z,27.02
2018-07-30T02:36:33.206Z,26.92
2018-07-30T02:39:04.056Z,26.76
2018-07-30T02:41:34.661Z,26.60
2018-07-30T02:44:05.279Z,26.52
2018-07-30T02:46:35.963Z,26.95
2018-07-30T02:49:07.041Z,26.68
2018-07-30T02:51:37.646Z,26.89
2018-07-30T02:54:08.729Z,26.71
2018-07-30T02:56:39.344Z,26.46
2018-07-30T02:59:10.136Z,26.52
2018-07-30T03:01:40.818Z,26.68
2018-07-30T03:04:11.758Z,26.44
2018-07-30T03:06:42.404Z,26.49
2018-07-30T03:09:13.110Z,26.75
2018-07-30T03:11:43.144Z,26.78
2018-07-30T03:14:13.953Z,26.79
2018-07-30T03:16:44.647Z,27.02
2018-07-30T03:19:15.526Z,26.91
2018-07-30T03:21:46.278Z,27.17
2018-07-30T03:24:17.437Z,27.25
2018-07-30T03:26:48.084Z,27.03
2018-07-30T03:29:18.925Z,27.03
2018-07-30T03:31:49.601Z,26.98
2018-07-30T03:34:20.481Z,27.15
2018-07-30T03:36:51.140Z,26.92
2018-07-30T03:39:21.973Z,26.97
2018-07-30T03:41:52.595Z,26.40
2018-07-30T03:44:23.697Z,26.60
2018-07-30T03:46:54.372Z,26.60
2018-07-30T03:49:25.307Z,26.61
2018-07-30T03:51:55.817Z,26.76
2018-07-30T03:54:26.480Z,26.63
2018-07-30T03:56:57.136Z,26.62
2018-07-30T03:59:27.976Z,26.58
2018-07-30T04:01:58.710Z,26.60
2018-07-30T04:04:29.593Z,26.60
2018-07-30T04:07:00.190Z,26.55
2018-07-30T04:09:31.012Z,26.48
2018-07-30T04:12:01.694Z,26.87
2018-07-30T04:14:32.356Z,26.67
2018-07-30T04:17:02.736Z,26.82
2018-07-30T04:19:33.532Z,26.54
2018-07-30T04:22:04.137Z,26.87
2018-07-30T04:24:34.773Z,27.12
2018-07-30T04:27:05.332Z,26.82
2018-07-30T04:29:36.104Z,27.03
2018-07-30T04:32:06.892Z,27.05
2018-07-30T04:34:37.524Z,27.52
2018-07-30T04:37:08.198Z,27.40
2018-07-30T04:39:39.181Z,27.23
2018-07-30T04:42:09.797Z,27.54
2018-07-30T04:44:40.566Z,28.02
2018-07-30T04:47:11.370Z,27.54
2018-07-30T04:49:41.912Z,27.46
2018-07-30T04:52:12.460Z,27.94
2018-07-30T04:54:43.126Z,28.22
2018-07-30T04:57:13.781Z,28.14
2018-07-30T04:59:44.412Z,28.31
2018-07-30T05:02:14.992Z,29.08
2018-07-30T05:04:45.098Z,29.81
2018-07-30T05:07:15.972Z,30.62
2018-07-30T05:09:46.596Z,30.78
2018-07-30T05:12:17.305Z,30.91
2018-07-30T05:14:47.965Z,31.66
2018-07-30T05:17:18.788Z,31.67
2018-07-30T05:19:49.753Z,31.76
2018-07-30T05:22:20.461Z,31.28
2018-07-30T05:24:51.253Z,31.45
2018-07-30T05:27:22.173Z,31.10
2018-07-30T05:29:52.893Z,30.85
2018-07-30T05:32:23.944Z,30.33
2018-07-30T05:34:54.632Z,30.72
2018-07-30T05:37:25.341Z,30.69
2018-07-30T05:39:56.065Z,30.94
2018-07-30T05:42:27.261Z,30.93
2018-07-30T05:44:57.885Z,31.03
2018-07-30T05:47:28.869Z,31.32
2018-07-30T05:49:59.520Z,31.57
2018-07-30T05:52:30.702Z,31.63
2018-07-30T05:55:01.387Z,31.51
2018-07-30T05:57:31.967Z,31.03
2018-07-30T06:00:02.478Z,30.53
2018-07-30T06:02:34.349Z,30.56
2018-07-30T06:05:06.599Z,30.88
2018-07-30T06:07:36.953Z,31.28
2018-07-30T06:10:07.985Z,31.01
2018-07-30T06:12:38.485Z,31.65
2018-07-30T06:15:09.385Z,31.60
2018-07-30T06:17:39.801Z,31.29
2018-07-30T06:20:11.898Z,32.19
2018-07-30T06:22:42.490Z,32.14
2018-07-30T06:25:13.235Z,32.21
2018-07-30T06:27:44.073Z,32.19
2018-07-30T06:30:14.649Z,33.32
2018-07-30T06:32:45.486Z,33.25
2018-07-30T06:35:16.181Z,32.16
2018-07-30T06:37:46.849Z,31.79
2018-07-30T06:40:17.257Z,32.08
2018-07-30T06:42:48.100Z,32.47
2018-07-30T06:45:18.692Z,32.34
2018-07-30T06:47:49.630Z,32.52
2018-07-30T06:50:19.877Z,32.37
2018-07-30T06:52:50.824Z,32.09
2018-07-30T06:55:21.430Z,31.63
2018-07-30T06:57:52.565Z,32.18
2018-07-30T07:00:23.196Z,32.41
2018-07-30T07:02:53.920Z,32.63
2018-07-30T07:05:24.560Z,33.05
2018-07-30T07:07:56.281Z,33.37
2018-07-30T07:10:26.792Z,33.78
2018-07-30T07:12:57.420Z,32.79
2018-07-30T07:15:28.037Z,33.11
2018-07-30T07:17:58.844Z,33.14
2018-07-30T07:20:29.542Z,32.99
2018-07-30T07:23:00.126Z,33.35
2018-07-30T07:25:30.840Z,33.95
2018-07-30T07:28:01.770Z,33.56
2018-07-30T07:30:32.458Z,33.92
2018-07-30T07:33:03.188Z,33.65
2018-07-30T07:35:33.689Z,33.31
2018-07-30T07:38:04.453Z,32.93
2018-07-30T07:40:35.137Z,32.78
2018-07-30T07:43:05.876Z,33.46
2018-07-30T07:45:36.569Z,33.34
2018-07-30T07:48:07.188Z,33.07
2018-07-30T07:50:37.940Z,34.10
2018-07-30T07:53:08.853Z,33.80
2018-07-30T07:55:39.437Z,34.30
2018-07-30T07:58:10.247Z,34.91
2018-07-30T08:00:40.993Z,35.64
2018-07-30T08:03:11.700Z,34.94
2018-07-30T08:05:42.223Z,34.74
2018-07-30T08:08:13.057Z,35.52
2018-07-30T08:10:43.689Z,34.99
2018-07-30T08:13:14.492Z,35.74
2018-07-30T08:15:45.197Z,36.30
2018-07-30T08:18:15.981Z,36.03
2018-07-30T08:20:46.402Z,35.83
2018-07-30T08:23:16.978Z,36.09
2018-07-30T08:25:47.625Z,36.68
2018-07-30T08:28:18.388Z,36.38
2018-07-30T08:30:49.047Z,37.01
2018-07-30T08:33:19.866Z,37.09
2018-07-30T08:35:50.514Z,37.45
2018-07-30T08:38:21.288Z,37.15
2018-07-30T08:40:51.928Z,36.84
2018-07-30T08:43:22.733Z,36.24
2018-07-30T08:45:53.443Z,36.15
2018-07-30T08:48:24.133Z,36.66
2018-07-30T08:50:54.761Z,35.55
2018-07-30T08:53:25.444Z,35.79
2018-07-30T08:55:56.095Z,37.20
2018-07-30T08:58:26.897Z,37.16
2018-07-30T09:00:57.238Z,37.29
2018-07-30T09:03:27.941Z,37.60
2018-07-30T09:05:58.254Z,36.32
2018-07-30T09:08:28.927Z,36.48
2018-07-30T09:10:59.270Z,37.27
2018-07-30T09:13:30.161Z,37.06
2018-07-30T09:16:00.816Z,37.52
2018-07-30T09:18:31.621Z,37.21
2018-07-30T09:21:01.893Z,36.58
2018-07-30T09:23:32.188Z,36.68
2018-07-30T09:26:02.541Z,36.79
2018-07-30T09:28:32.772Z,36.15
2018-07-30T09:31:03.597Z,35.44
2018-07-30T09:33:34.421Z,35.40
2018-07-30T09:36:05.226Z,35.26
2018-07-30T09:38:35.620Z,35.21
2018-07-30T09:41:06.148Z,35.33
2018-07-30T09:43:36.377Z,34.04
2018-07-30T09:46:08.134Z,32.88
2018-07-30T09:48:38.845Z,33.23
2018-07-30T09:51:10.523Z,33.45
2018-07-30T09:53:41.225Z,32.97
2018-07-30T09:56:11.712Z,32.83
2018-07-30T09:58:42.061Z,32.24
2018-07-30T10:01:17.545Z,32.04
2018-07-30T10:03:47.794Z,31.83
2018-07-30T10:06:18.181Z,31.30
2018-07-30T10:08:48.779Z,30.85
2018-07-30T10:11:19.577Z,30.83
2018-07-30T10:13:49.600Z,30.95
2018-07-30T10:16:20.369Z,30.81
2018-07-30T10:18:51.105Z,30.78
2018-07-30T10:21:21.781Z,30.64
2018-07-30T10:23:52.469Z,30.85
2018-07-30T10:26:23.481Z,30.84
2018-07-30T10:28:54.247Z,30.45
2018-07-30T10:31:25.153Z,30.48
2018-07-30T10:33:55.813Z,30.53
2018-07-30T10:36:26.643Z,30.27
2018-07-30T10:38:57.283Z,30.47
2018-07-30T10:41:27.873Z,30.45
2018-07-30T10:43:58.409Z,30.67
2018-07-30T10:46:29.071Z,30.72
2018-07-30T10:48:59.729Z,31.04
2018-07-30T10:51:30.315Z,30.69
2018-07-30T10:54:01.132Z,30.82
2018-07-30T10:56:31.822Z,30.88
2018-07-30T10:59:02.462Z,31.21
2018-07-30T11:01:33.438Z,31.03
2018-07-30T11:04:04.068Z,31.08
2018-07-30T11:06:34.596Z,31.21
2018-07-30T11:09:07.173Z,31.64
2018-07-30T11:11:37.840Z,31.52
2018-07-30T11:14:08.729Z,31.70
2018-07-30T11:16:39.640Z,31.69
2018-07-30T11:19:10.261Z,31.89
2018-07-30T11:21:41.112Z,32.09
2018-07-30T11:24:11.705Z,32.01
2018-07-30T11:26:42.476Z,32.25
2018-07-30T11:29:13.104Z,32.34
2018-07-30T11:31:44.109Z,31.88
2018-07-30T11:34:14.699Z,32.04
2018-07-30T11:36:45.467Z,32.34
2018-07-30T11:39:16.111Z,32.05
2018-07-30T11:41:46.848Z,32.35
2018-07-30T11:44:17.416Z,32.52
2018-07-30T11:46:48.138Z,32.47
2018-07-30T11:49:18.826Z,33.02
2018-07-30T11:51:49.509Z,32.73
2018-07-30T11:54:20.403Z,32.76
2018-07-30T11:56:50.918Z,32.71
2018-07-30T11:59:21.565Z,32.92
2018-07-30T12:01:52.297Z,33.32
2018-07-30T12:04:23.173Z,33.69
2018-07-30T12:06:53.860Z,32.75
2018-07-30T12:09:24.504Z,32.90
2018-07-30T12:11:55.338Z,32.80
2018-07-30T12:14:25.916Z,32.76
2018-07-30T12:16:56.637Z,33.31
2018-07-30T12:19:27.249Z,33.15
2018-07-30T12:21:57.849Z,33.18
2018-07-30T12:24:28.529Z,32.80
2018-07-30T12:26:59.152Z,32.92
2018-07-30T12:29:29.851Z,32.78
2018-07-30T12:32:00.699Z,32.75
2018-07-30T12:34:31.529Z,33.14
2018-07-30T12:37:02.209Z,32.78
2018-07-30T12:39:32.985Z,32.38
2018-07-30T12:42:05.113Z,32.75
2018-07-30T12:44:35.832Z,32.74
2018-07-30T12:47:07.288Z,32.75
2018-07-30T12:49:37.920Z,32.68
2018-07-30T12:52:08.594Z,32.65
2018-07-30T12:54:39.216Z,32.86
2018-07-30T12:57:09.685Z,33.41
2018-07-30T12:59:40.336Z,33.28
2018-07-30T13:02:11.262Z,33.12
2018-07-30T13:04:41.921Z,32.80
2018-07-30T13:07:12.800Z,32.64
2018-07-30T13:09:43.377Z,32.67
2018-07-30T13:12:14.180Z,32.06
2018-07-30T13:14:44.789Z,31.95
2018-07-30T13:17:15.658Z,31.97
2018-07-30T13:19:46.261Z,31.87
2018-07-30T13:22:17.045Z,31.87
2018-07-30T13:24:47.673Z,31.91
2018-07-30T13:27:18.810Z,31.85
2018-07-30T13:29:49.467Z,31.52
2018-07-30T13:32:20.380Z,31.59
2018-07-30T13:34:51.005Z,31.13
2018-07-30T13:37:21.913Z,30.84
2018-07-30T13:39:52.484Z,30.97
2018-07-30T13:42:23.220Z,31.28
2018-07-30T13:44:53.910Z,31.28
2018-07-30T13:47:24.709Z,31.43
2018-07-30T13:49:55.378Z,30.84
2018-07-30T13:52:26.069Z,30.38
2018-07-30T13:54:56.353Z,30.28
2018-07-30T13:57:27.105Z,30.76
2018-07-30T13:59:57.683Z,30.64
2018-07-30T14:02:28.345Z,30.93
2018-07-30T14:04:59.005Z,31.08
2018-07-30T14:07:29.918Z,31.48
2018-07-30T14:10:00.531Z,31.62
2018-07-30T14:12:31.270Z,31.98
2018-07-30T14:15:01.942Z,31.77
2018-07-30T14:17:32.685Z,31.99
2018-07-30T14:20:03.361Z,32.26
2018-07-30T14:22:34.039Z,32.45
2018-07-30T14:25:04.017Z,32.19
2018-07-30T14:27:34.762Z,32.15
2018-07-30T14:30:06.965Z,32.43
2018-07-30T14:32:37.540Z,32.15
2018-07-30T14:35:08.355Z,31.75
2018-07-30T14:37:38.896Z,31.91
2018-07-30T14:40:12.018Z,32.38
2018-07-30T14:42:43.244Z,32.42
2018-07-30T14:45:13.917Z,32.54
2018-07-30T14:47:44.745Z,32.54
2018-07-30T14:50:15.368Z,32.74
2018-07-30T14:52:46.185Z,32.36
2018-07-30T14:55:16.805Z,32.55
2018-07-30T14:57:47.576Z,32.28
2018-07-30T15:00:18.223Z,32.80
2018-07-30T15:02:49.068Z,32.83
2018-07-30T15:05:21.997Z,33.36
2018-07-30T15:07:52.991Z,33.77
2018-07-30T15:10:23.508Z,34.25
2018-07-30T15:12:54.501Z,34.28
2018-07-30T15:15:25.057Z,34.17
2018-07-30T15:17:56.077Z,35.18
2018-07-30T15:20:26.761Z,35.68
2018-07-30T15:22:57.452Z,35.47
2018-07-30T15:25:28.221Z,35.91
2018-07-30T15:27:59.767Z,35.94
2018-07-30T15:30:30.541Z,36.17
2018-07-30T15:33:01.537Z,36.14
2018-07-30T15:35:32.168Z,35.56
2018-07-30T15:38:03.137Z,35.61
2018-07-30T15:40:33.750Z,35.89
2018-07-30T15:43:04.500Z,34.73
2018-07-30T15:45:35.257Z,35.24
2018-07-30T15:48:06.049Z,34.72
2018-07-30T15:50:36.729Z,34.78
2018-07-30T15:53:07.586Z,34.49
2018-07-30T15:55:38.304Z,35.14
2018-07-30T15:58:09.174Z,34.13
2018-07-30T16:00:39.704Z,34.36
2018-07-30T16:03:10.508Z,34.52
2018-07-30T16:05:41.195Z,34.29
2018-07-30T16:08:11.876Z,34.23
2018-07-30T16:10:42.441Z,34.49
2018-07-30T16:13:13.128Z,33.82
2018-07-30T16:15:43.796Z,34.64
2018-07-30T16:18:14.686Z,34.35
2018-07-30T16:20:45.416Z,34.00
2018-07-30T16:23:16.337Z,34.14
2018-07-30T16:25:47.149Z,34.33
2018-07-30T16:28:17.717Z,34.10
2018-07-30T16:30:48.498Z,33.94
2018-07-30T16:33:19.634Z,34.23
2018-07-30T16:35:50.381Z,34.39
2018-07-30T16:38:21.301Z,33.77
2018-07-30T16:40:52.009Z,34.35
2018-07-30T16:43:22.661Z,34.19
2018-07-30T16:45:53.367Z,34.13
2018-07-30T16:48:24.237Z,34.70
2018-07-30T16:50:54.938Z,33.92
2018-07-30T16:53:25.769Z,33.94
2018-07-30T16:55:56.241Z,34.12
2018-07-30T16:58:27.199Z,34.12
2018-07-30T17:00:57.893Z,34.19
2018-07-30T17:03:28.715Z,34.11
2018-07-30T17:05:59.482Z,34.22
2018-07-30T17:08:30.256Z,34.28
2018-07-30T17:11:00.810Z,34.24
2018-07-30T17:13:31.888Z,34.12
2018-07-30T17:16:02.528Z,33.79
2018-07-30T17:18:33.593Z,33.74
2018-07-30T17:21:04.181Z,33.54
2018-07-30T17:23:35.009Z,33.41
2018-07-30T17:26:05.569Z,33.24
2018-07-30T17:28:36.329Z,33.08
2018-07-30T17:31:06.932Z,32.83
2018-07-30T17:33:38.037Z,32.79
2018-07-30T17:36:08.651Z,32.85
2018-07-30T17:38:39.221Z,32.61
2018-07-30T17:41:09.981Z,32.65
2018-07-30T17:43:40.835Z,31.94
2018-07-30T17:46:11.642Z,31.34
2018-07-30T17:48:42.369Z,31.00
2018-07-30T17:51:13.014Z,30.96
2018-07-30T17:53:43.397Z,30.92
2018-07-30T17:56:14.157Z,31.06
2018-07-30T17:58:45.146Z,30.75
2018-07-30T18:01:15.786Z,30.88
2018-07-30T18:03:46.521Z,30.75
2018-07-30T18:06:17.036Z,30.47
2018-07-30T18:08:47.904Z,30.54
2018-07-30T18:11:18.524Z,30.58
2018-07-30T18:13:49.264Z,30.54
2018-07-30T18:16:19.920Z,30.69
2018-07-30T18:18:50.608Z,30.68
2018-07-30T18:21:21.080Z,30.82
2018-07-30T18:23:52.074Z,30.79
2018-07-30T18:26:22.716Z,30.72
2018-07-30T18:28:53.980Z,30.78
2018-07-30T18:31:24.598Z,30.65
2018-07-30T18:33:55.336Z,30.52
2018-07-30T18:36:25.961Z,30.58
2018-07-30T18:38:56.569Z,30.42
2018-07-30T18:41:27.158Z,30.33
2018-07-30T18:43:57.962Z,30.06
2018-07-30T18:46:28.681Z,29.58
2018-07-30T18:48:59.266Z,29.54
2018-07-30T18:51:29.938Z,29.63
2018-07-30T18:54:00.777Z,29.75
2018-07-30T18:56:31.430Z,29.50
2018-07-30T18:59:02.314Z,29.34
2018-07-30T19:01:33.025Z,29.47
2018-07-30T19:04:03.837Z,29.44
2018-07-30T19:06:34.597Z,29.05
2018-07-30T19:09:06.822Z,28.95
2018-07-30T19:11:37.448Z,28.93
2018-07-30T19:14:08.500Z,29.03
2018-07-30T19:16:38.960Z,28.65
2018-07-30T19:19:09.745Z,29.13
2018-07-30T19:21:40.483Z,29.14
2018-07-30T19:24:11.292Z,28.96
2018-07-30T19:26:42.010Z,28.61
2018-07-30T19:29:12.930Z,28.54
2018-07-30T19:31:43.029Z,28.50
2018-07-30T19:34:13.740Z,28.32
2018-07-30T19:36:44.416Z,28.39
2018-07-30T19:39:15.113Z,28.54
2018-07-30T19:41:45.780Z,28.82
2018-07-30T19:44:16.673Z,29.07
2018-07-30T19:46:47.348Z,29.03
2018-07-30T19:49:18.501Z,29.19
2018-07-30T19:51:49.131Z,29.13
2018-07-30T19:54:19.724Z,29.07
2018-07-30T19:56:50.385Z,29.00
2018-07-30T19:59:21.273Z,29.09
2018-07-30T20:01:52.013Z,28.66
2018-07-30T20:04:22.736Z,28.34
2018-07-30T20:06:53.431Z,28.15
2018-07-30T20:09:24.214Z,28.31
2018-07-30T20:11:54.791Z,28.45
2018-07-30T20:14:25.453Z,28.49
2018-07-30T20:16:56.222Z,28.78
2018-07-30T20:19:27.173Z,28.88
2018-07-30T20:21:57.730Z,28.58
2018-07-30T20:24:28.618Z,28.68
2018-07-30T20:26:59.201Z,28.97
2018-07-30T20:29:30.358Z,29.18
2018-07-30T20:32:01.024Z,29.00
2018-07-30T20:34:31.762Z,28.89
2018-07-30T20:37:02.515Z,29.24
2018-07-30T20:39:33.186Z,29.22
2018-07-30T20:42:03.714Z,29.35
2018-07-30T20:44:34.380Z,29.46
2018-07-30T20:47:05.109Z,29.50
2018-07-30T20:49:35.797Z,29.37
2018-07-30T20:52:06.441Z,29.27
2018-07-30T20:54:38.189Z,29.33
2018-07-30T20:57:08.769Z,29.46
2018-07-30T20:59:39.504Z,29.44
2018-07-30T21:02:10.349Z,29.33
2018-07-30T21:04:41.100Z,28.79
2018-07-30T21:07:11.690Z,28.86
2018-07-30T21:09:42.164Z,29.14
2018-07-30T21:12:12.831Z,29.63
2018-07-30T21:14:43.749Z,29.74
2018-07-30T21:17:14.489Z,29.52
2018-07-30T21:19:45.414Z,29.13
2018-07-30T21:22:16.065Z,29.61
2018-07-30T21:24:46.341Z,29.57
2018-07-30T21:27:17.054Z,29.43
2018-07-30T21:29:47.873Z,29.17
2018-07-30T21:32:18.568Z,29.46
2018-07-30T21:34:49.352Z,29.61
2018-07-30T21:37:19.905Z,29.37
2018-07-30T21:39:51.412Z,29.44
2018-07-30T21:42:22.079Z,29.31
2018-07-30T21:44:52.924Z,29.57
2018-07-30T21:47:23.496Z,29.42
2018-07-30T21:49:54.156Z,29.55
2018-07-30T21:52:24.740Z,29.78
2018-07-30T21:54:55.685Z,29.74
2018-07-30T21:57:26.425Z,29.53
2018-07-30T21:59:57.329Z,29.51
2018-07-30T22:02:28.016Z,29.68
2018-07-30T22:04:58.681Z,29.63
2018-07-30T22:07:29.352Z,29.71
2018-07-30T22:10:00.351Z,29.70
2018-07-30T22:12:30.989Z,29.66
2018-07-30T22:15:01.978Z,29.60
2018-07-30T22:17:32.252Z,29.52
2018-07-30T22:20:03.061Z,29.33
2018-07-30T22:22:33.748Z,29.20
2018-07-30T22:25:04.693Z,29.08
2018-07-30T22:27:35.320Z,28.99
2018-07-30T22:30:08.415Z,29.07
2018-07-30T22:32:39.039Z,29.39
2018-07-30T22:35:11.088Z,29.48
2018-07-30T22:37:41.690Z,29.45
2018-07-30T22:40:12.441Z,29.36
2018-07-30T22:42:43.176Z,29.34
2018-07-30T22:45:13.789Z,29.00
2018-07-30T22:47:44.497Z,29.12
2018-07-30T22:50:15.412Z,29.17
2018-07-30T22:52:46.194Z,29.09
2018-07-30T22:55:16.964Z,29.33
2018-07-30T22:57:47.168Z,28.93
2018-07-30T23:00:17.767Z,29.22
2018-07-30T23:02:48.452Z,29.37
2018-07-30T23:05:20.904Z,29.18
2018-07-30T23:07:51.765Z,29.12
2018-07-30T23:10:22.752Z,29.14
2018-07-30T23:12:53.289Z,28.98
2018-07-30T23:15:24.021Z,28.96
2018-07-30T23:17:54.753Z,28.97
2018-07-30T23:20:25.592Z,29.16
2018-07-30T23:22:56.382Z,29.22
2018-07-30T23:25:27.184Z,29.15
2018-07-30T23:27:57.708Z,28.99
2018-07-30T23:30:28.373Z,28.90
2018-07-30T23:32:58.849Z,28.93
2018-07-30T23:35:30.381Z,29.04
2018-07-30T23:38:00.978Z,28.83
2018-07-30T23:40:31.672Z,28.59
2018-07-30T23:43:02.340Z,28.46
2018-07-30T23:45:33.172Z,28.30
2018-07-30T23:48:03.816Z,28.44
2018-07-30T23:50:34.540Z,28.60
2018-07-30T23:53:05.360Z,29.00
2018-07-30T23:55:36.096Z,28.89
2018-07-30T23:58:06.833Z,28.69
